Time;durP1;ratioP1;P1;durP2;ratioP2;P2;SDS_P1;SDS_P2;PMS_P1;PMS_P2;Temp;Humidity;BMP_temperature;BMP_pressure;BME280_temperature;BME280_humidity;BME280_pressure;Samples;Min_cycle;Max_cycle;Signal;HPM_P1;HPM_P2
2022/06/25 00:02:18;;;;;;;4.18;1.30;;;21.10;99.90;;;;;;7347680;19;108579;-83
2022/06/25 00:07:31;;;;;;;4.68;1.30;;;21.10;99.90;;;;;;7345169;19;109906;-83
2022/06/25 00:09:58;;;;;;;3.15;1.20;;;21.10;99.90;;;;;;7349030;19;108291;-83
2022/06/25 00:12:31;;;;;;;3.47;1.23;;;21.00;99.90;;;;;;7345322;19;108188;-83
2022/06/25 00:15:04;;;;;;;4.72;1.20;;;21.00;99.90;;;;;;7346529;19;108271;-83
2022/06/25 00:17:32;;;;;;;3.63;1.40;;;21.00;99.90;;;;;;7345974;19;108947;-83
2022/06/25 00:20:01;;;;;;;2.55;1.30;;;21.00;99.90;;;;;;7343916;19;107969;-83
2022/06/25 00:22:28;;;;;;;4.32;1.55;;;20.90;99.90;;;;;;7346190;19;111590;-84
2022/06/25 00:24:55;;;;;;;3.72;1.10;;;20.90;99.90;;;;;;7343494;19;112835;-83
2022/06/25 00:27:22;;;;;;;3.67;1.40;;;20.90;99.90;;;;;;7346019;19;108240;-83
2022/06/25 00:29:50;;;;;;;3.53;1.40;;;20.80;99.90;;;;;;7343828;19;108326;-83
2022/06/25 00:32:17;;;;;;;3.03;1.48;;;20.80;99.90;;;;;;7352710;19;108896;-83
2022/06/25 00:34:44;;;;;;;4.45;1.48;;;20.80;99.90;;;;;;7344273;19;108368;-83
2022/06/25 00:37:11;;;;;;;3.03;1.20;;;20.80;99.90;;;;;;7343943;19;109032;-83
2022/06/25 00:39:39;;;;;;;2.60;1.40;;;20.70;99.90;;;;;;7344281;19;111245;-83
2022/06/25 00:42:10;;;;;;;3.58;1.50;;;20.70;99.90;;;;;;7346217;19;108209;-83
2022/06/25 00:44:37;;;;;;;3.10;1.38;;;20.70;99.90;;;;;;7344640;19;108912;-83
2022/06/25 00:47:13;;;;;;;4.40;1.38;;;20.70;99.90;;;;;;7346142;19;108230;-83
2022/06/25 00:49:41;;;;;;;4.18;1.40;;;20.60;99.90;;;;;;7343460;19;107895;-83
2022/06/25 00:52:14;;;;;;;4.63;1.50;;;20.60;99.90;;;;;;7343912;19;111914;-84
2022/06/25 00:54:56;;;;;;;2.85;1.50;;;20.60;99.90;;;;;;7348254;19;107782;-83
2022/06/25 00:57:29;;;;;;;4.28;1.77;;;20.60;99.90;;;;;;7344041;19;109437;-83
2022/06/25 01:00:06;;;;;;;5.63;1.42;;;20.50;99.90;;;;;;7344697;19;107941;-83
2022/06/25 01:02:34;;;;;;;4.75;1.40;;;20.50;99.90;;;;;;7346210;19;108137;-83
2022/06/25 01:05:07;;;;;;;4.70;1.55;;;20.40;99.90;;;;;;7341541;19;109647;-84
2022/06/25 01:07:35;;;;;;;2.20;1.23;;;20.40;99.90;;;;;;7345366;19;111580;-84
2022/06/25 01:10:07;;;;;;;5.20;1.40;;;20.40;99.90;;;;;;7345379;19;108117;-83
2022/06/25 01:12:35;;;;;;;5.43;1.70;;;20.30;99.90;;;;;;7344323;19;108929;-84
2022/06/25 01:15:08;;;;;;;3.33;1.50;;;20.30;99.90;;;;;;7343851;19;108398;-84
2022/06/25 01:17:41;;;;;;;3.75;1.67;;;20.30;99.90;;;;;;7350994;19;109110;-83
2022/06/25 01:20:09;;;;;;;3.83;1.60;;;20.20;99.90;;;;;;7343510;19;106956;-83
2022/06/25 01:22:36;;;;;;;5.40;1.85;;;20.20;99.90;;;;;;7344675;19;108224;-83
2022/06/25 01:25:03;;;;;;;4.00;1.55;;;20.20;99.90;;;;;;7341010;19;108881;-83
2022/06/25 01:27:31;;;;;;;4.13;1.60;;;20.20;99.90;;;;;;7345335;19;107467;-83
2022/06/25 01:29:58;;;;;;;4.55;1.80;;;20.10;99.90;;;;;;7340957;19;108200;-83
2022/06/25 01:32:25;;;;;;;3.95;1.60;;;20.10;99.90;;;;;;7344860;19;110122;-83
2022/06/25 01:34:52;;;;;;;4.22;1.65;;;20.10;99.90;;;;;;7342371;19;108282;-83
2022/06/25 01:37:21;;;;;;;6.70;2.05;;;20.10;99.90;;;;;;7350155;19;108616;-83
2022/06/25 01:39:53;;;;;;;3.55;1.70;;;20.00;99.90;;;;;;7342025;19;107976;-84
2022/06/25 01:45:10;;;;;;;3.55;1.55;;;20.00;99.90;;;;;;7339378;19;108888;-84
2022/06/25 01:47:37;;;;;;;5.68;1.65;;;19.90;99.90;;;;;;7344925;19;109540;-84
2022/06/25 01:50:07;;;;;;;2.97;1.70;;;19.90;99.90;;;;;;7344180;19;108326;-83
2022/06/25 01:52:34;;;;;;;4.65;1.60;;;19.90;99.90;;;;;;7344171;19;109185;-83
2022/06/25 01:55:02;;;;;;;3.78;1.58;;;19.90;99.90;;;;;;7343075;19;108011;-83
2022/06/25 01:57:30;;;;;;;2.20;1.45;;;19.80;99.90;;;;;;7341686;19;108512;-83
2022/06/25 01:59:57;;;;;;;6.50;1.58;;;19.80;99.90;;;;;;7346037;19;108333;-83
2022/06/25 02:02:24;;;;;;;4.43;1.58;;;19.80;99.90;;;;;;7341926;19;108198;-84
2022/06/25 02:04:52;;;;;;;5.65;1.63;;;19.70;99.90;;;;;;7340828;19;109537;-83
2022/06/25 02:07:19;;;;;;;3.63;1.55;;;19.70;99.90;;;;;;7342144;19;108424;-83
2022/06/25 02:09:46;;;;;;;6.20;1.73;;;19.70;99.90;;;;;;7341811;19;107814;-83
2022/06/25 02:12:13;;;;;;;4.47;1.58;;;19.70;99.90;;;;;;7343390;19;109347;-83
2022/06/25 02:14:40;;;;;;;3.65;1.67;;;19.60;99.90;;;;;;7343229;19;107966;-83
2022/06/25 02:17:07;;;;;;;6.50;1.40;;;19.70;99.90;;;;;;7342418;19;108518;-85
2022/06/25 02:19:35;;;;;;;4.70;1.73;;;19.60;99.90;;;;;;7341035;19;108996;-83
2022/06/25 02:22:02;;;;;;;4.22;1.60;;;19.60;99.90;;;;;;7347218;19;107970;-83
2022/06/25 02:24:29;;;;;;;4.15;1.80;;;19.60;99.90;;;;;;7342563;19;108487;-83
2022/06/25 02:26:56;;;;;;;3.35;1.70;;;19.60;99.90;;;;;;7343580;19;108976;-83
2022/06/25 02:29:24;;;;;;;3.58;2.05;;;19.60;99.90;;;;;;7341573;19;108090;-83
2022/06/25 02:31:51;;;;;;;3.25;2.03;;;19.60;99.90;;;;;;7342695;19;108809;-84
2022/06/25 02:34:18;;;;;;;6.75;1.90;;;19.60;99.90;;;;;;7342420;19;107963;-84
2022/06/25 02:36:45;;;;;;;2.75;1.90;;;19.60;99.90;;;;;;7342977;19;108624;-83
2022/06/25 02:39:12;;;;;;;5.70;2.10;;;19.60;99.90;;;;;;7343768;19;108479;-83
2022/06/25 02:41:39;;;;;;;8.02;1.92;;;19.60;99.90;;;;;;7342868;19;107913;-83
2022/06/25 02:44:06;;;;;;;5.72;1.92;;;19.60;99.90;;;;;;7344901;19;108491;-84
2022/06/25 02:46:33;;;;;;;5.68;1.85;;;19.50;99.90;;;;;;7339115;19;108110;-84
2022/06/25 02:49:01;;;;;;;7.10;2.22;;;19.40;99.90;;;;;;7341692;19;107514;-82
2022/06/25 02:51:29;;;;;;;6.15;2.10;;;19.40;99.90;;;;;;7342693;19;108824;-83
2022/06/25 02:53:56;;;;;;;5.50;2.20;;;19.40;99.90;;;;;;7341747;19;107937;-83
2022/06/25 02:59:09;;;;;;;6.90;2.33;;;19.40;99.90;;;;;;7349639;19;109023;-83
2022/06/25 03:01:36;;;;;;;3.58;2.40;;;19.40;99.90;;;;;;7348155;19;107250;-83
2022/06/25 03:04:03;;;;;;;7.45;3.08;;;19.40;99.90;;;;;;7348011;19;108245;-84
2022/06/25 03:06:31;;;;;;;5.63;2.38;;;19.40;99.90;;;;;;7351369;19;108903;-83
2022/06/25 03:08:58;;;;;;;7.85;2.47;;;19.40;99.90;;;;;;7348557;19;108303;-83
2022/06/25 03:11:25;;;;;;;3.95;2.58;;;19.30;99.90;;;;;;7349183;19;109220;-84
2022/06/25 03:13:52;;;;;;;10.25;2.83;;;19.30;99.90;;;;;;7347701;19;107901;-83
2022/06/25 03:16:19;;;;;;;10.20;2.53;;;19.20;99.90;;;;;;7348609;19;108116;-83
2022/06/25 03:18:47;;;;;;;6.20;2.40;;;19.20;99.90;;;;;;7346816;19;111871;-83
2022/06/25 03:21:14;;;;;;;5.25;2.20;;;19.20;99.90;;;;;;7347486;19;107652;-83
2022/06/25 03:23:41;;;;;;;7.10;2.55;;;19.20;99.90;;;;;;7348842;19;108501;-83
2022/06/25 03:26:08;;;;;;;6.53;2.50;;;19.20;99.90;;;;;;7344941;19;108564;-83
2022/06/25 03:28:36;;;;;;;6.07;2.30;;;19.20;99.90;;;;;;7354244;19;108234;-83
2022/06/25 03:31:03;;;;;;;3.65;2.13;;;19.30;99.90;;;;;;7348350;19;107836;-83
2022/06/25 03:33:30;;;;;;;5.15;2.50;;;19.30;99.90;;;;;;7346794;19;107224;-84
2022/06/25 03:35:57;;;;;;;4.53;1.92;;;19.20;99.90;;;;;;7347894;19;109647;-83
2022/06/25 03:38:25;;;;;;;8.48;2.25;;;19.20;99.90;;;;;;7347965;19;108759;-84
2022/06/25 03:41:32;;;;;;;8.93;2.55;;;19.30;99.90;;;;;;7348270;19;108484;-83
2022/06/25 03:43:39;;;;;;;6.60;2.30;;;19.30;99.90;;;;;;7347048;19;106859;-83
2022/06/25 03:46:06;;;;;;;7.25;1.98;;;19.30;99.90;;;;;;7345126;19;109148;-84
2022/06/25 03:48:33;;;;;;;7.18;2.58;;;19.30;99.90;;;;;;7353030;19;107920;-84
2022/06/25 03:51:01;;;;;;;7.18;2.20;;;19.50;99.90;;;;;;7347798;19;108774;-83
2022/06/25 03:53:28;;;;;;;8.63;2.85;;;19.70;99.90;;;;;;7345075;19;111258;-84
2022/06/25 03:55:55;;;;;;;7.07;2.42;;;19.70;99.90;;;;;;7348292;19;108565;-84
2022/06/25 03:58:22;;;;;;;4.97;1.92;;;19.60;99.90;;;;;;7345220;19;109070;-83
2022/06/25 04:00:49;;;;;;;6.45;2.20;;;19.60;99.90;;;;;;7345553;19;107445;-84
2022/06/25 04:03:17;;;;;;;4.97;2.10;;;19.60;99.90;;;;;;7347495;19;108166;-84
2022/06/25 04:05:44;;;;;;;5.07;1.85;;;19.60;99.90;;;;;;7345072;19;110169;-83
2022/06/25 04:08:11;;;;;;;6.68;2.28;;;19.50;99.90;;;;;;7344028;19;108257;-83
2022/06/25 04:10:38;;;;;;;3.75;2.10;;;19.60;99.90;;;;;;7352618;19;108496;-83
2022/06/25 04:13:05;;;;;;;3.78;1.90;;;19.60;99.90;;;;;;7347176;19;111099;-83
2022/06/25 04:15:33;;;;;;;4.78;2.00;;;19.60;99.90;;;;;;7346887;19;108402;-83
2022/06/25 04:18:00;;;;;;;4.53;2.10;;;19.60;99.90;;;;;;7346819;19;111087;-83
2022/06/25 04:20:27;;;;;;;5.88;2.40;;;19.60;99.90;;;;;;7346454;19;108272;-84
2022/06/25 04:22:54;;;;;;;6.60;2.20;;;19.60;99.90;;;;;;7346440;19;108147;-84
2022/06/25 04:25:22;;;;;;;6.05;1.88;;;19.60;99.90;;;;;;7346091;19;109112;-83
2022/06/25 04:30:34;;;;;;;6.10;2.13;;;19.60;99.90;;;;;;7346902;19;107369;-83
2022/06/25 04:33:02;;;;;;;6.28;1.95;;;19.60;99.90;;;;;;7350404;19;112718;-84
2022/06/25 04:35:29;;;;;;;8.02;2.08;;;19.60;99.90;;;;;;7345972;19;108401;-83
2022/06/25 04:37:56;;;;;;;6.70;2.10;;;19.70;99.90;;;;;;7346298;19;109012;-84
2022/06/25 04:40:24;;;;;;;4.80;2.00;;;19.60;99.90;;;;;;7343951;19;108265;-83
2022/06/25 04:42:51;;;;;;;3.47;1.92;;;19.70;99.90;;;;;;7345454;19;108516;-83
2022/06/25 04:45:18;;;;;;;7.93;1.95;;;19.70;99.90;;;;;;7343830;19;108127;-84
2022/06/25 04:47:45;;;;;;;6.82;2.05;;;19.80;99.90;;;;;;7346471;19;107338;-83
2022/06/25 04:50:12;;;;;;;5.03;2.22;;;19.70;99.90;;;;;;7345499;19;110087;-83
2022/06/25 04:52:39;;;;;;;7.78;1.92;;;19.80;99.90;;;;;;7345772;19;109446;-84
2022/06/25 04:55:07;;;;;;;6.18;1.83;;;19.80;99.90;;;;;;7349184;19;107948;-83
2022/06/25 04:57:34;;;;;;;6.20;2.17;;;19.90;99.90;;;;;;7345737;19;109344;-84
2022/06/25 05:00:03;;;;;;;6.00;2.03;;;19.90;99.90;;;;;;7344536;19;108332;-84
2022/06/25 05:02:30;;;;;;;4.03;1.90;;;19.90;99.90;;;;;;7343884;19;109057;-84
2022/06/25 05:04:57;;;;;;;8.45;2.08;;;20.00;99.90;;;;;;7345012;19;109004;-84
2022/06/25 05:07:25;;;;;;;7.63;1.90;;;20.00;99.90;;;;;;7344094;19;108196;-84
2022/06/25 05:09:52;;;;;;;8.98;2.10;;;20.10;99.90;;;;;;7344415;19;107836;-84
2022/06/25 05:15:05;;;;;;;5.20;2.00;;;20.30;99.90;;;;;;7345303;19;108241;-84
2022/06/25 05:17:32;;;;;;;4.53;1.77;;;20.30;99.90;;;;;;7348719;19;108089;-83
2022/06/25 05:20:00;;;;;;;5.43;2.00;;;20.40;99.90;;;;;;7341065;19;109468;-84
2022/06/25 05:22:27;;;;;;;4.93;2.20;;;20.40;99.90;;;;;;7344445;19;111136;-84
2022/06/25 05:24:54;;;;;;;4.88;1.90;;;20.50;99.90;;;;;;7344602;19;108956;-83
2022/06/25 05:27:23;;;;;;;6.30;1.90;;;20.50;99.90;;;;;;7343432;19;108020;-84
2022/06/25 05:29:50;;;;;;;4.18;2.03;;;20.60;99.90;;;;;;7344576;19;110638;-84
2022/06/25 05:32:17;;;;;;;6.00;1.73;;;20.60;99.90;;;;;;7342624;19;109854;-83
2022/06/25 05:34:44;;;;;;;6.00;1.95;;;20.70;99.90;;;;;;7342928;19;107967;-84
2022/06/25 05:37:11;;;;;;;5.72;2.10;;;20.70;99.90;;;;;;7343028;19;108542;-84
2022/06/25 05:39:38;;;;;;;6.20;1.80;;;20.80;99.90;;;;;;7349646;19;108930;-83
2022/06/25 05:42:05;;;;;;;4.40;1.77;;;20.80;99.90;;;;;;7345022;19;110060;-84
2022/06/25 05:44:32;;;;;;;6.35;1.60;;;20.90;99.90;;;;;;7341501;19;107882;-85
2022/06/25 05:47:04;;;;;;;2.85;1.70;;;20.90;99.90;;;;;;7343110;19;110739;-85
2022/06/25 05:49:31;;;;;;;8.57;1.80;;;21.00;99.90;;;;;;7342899;19;107708;-84
2022/06/25 05:51:58;;;;;;;3.10;1.88;;;21.00;99.90;;;;;;7342854;19;109445;-83
2022/06/25 05:54:25;;;;;;;5.25;1.90;;;21.10;99.90;;;;;;7343227;19;107421;-84
2022/06/25 05:56:52;;;;;;;4.57;1.55;;;21.20;99.90;;;;;;7344528;19;108448;-84
2022/06/25 05:59:20;;;;;;;5.78;1.45;;;21.30;99.90;;;;;;7349127;19;109018;-82
2022/06/25 06:01:47;;;;;;;5.88;1.50;;;21.30;99.90;;;;;;7341426;19;111632;-84
2022/06/25 06:04:14;;;;;;;4.05;1.60;;;21.40;99.90;;;;;;7343053;19;109182;-83
2022/06/25 06:06:41;;;;;;;3.83;1.48;;;21.40;99.90;;;;;;7343555;19;107658;-84
2022/06/25 06:09:10;;;;;;;5.03;1.45;;;21.50;99.90;;;;;;7343408;19;108787;-84
2022/06/25 06:11:37;;;;;;;7.53;1.40;;;21.50;99.90;;;;;;7343503;19;109166;-84
2022/06/25 06:14:04;;;;;;;4.32;1.83;;;21.60;99.90;;;;;;7341711;19;107060;-83
2022/06/25 06:16:31;;;;;;;6.80;1.40;;;21.60;99.90;;;;;;7341606;19;107962;-83
2022/06/25 06:18:58;;;;;;;8.38;1.42;;;21.60;99.90;;;;;;7341541;19;108938;-86
2022/06/25 06:21:25;;;;;;;3.17;1.23;;;21.60;99.90;;;;;;7347222;19;110949;-84
2022/06/25 06:23:53;;;;;;;3.50;1.10;;;21.60;99.90;;;;;;7341217;19;108837;-87
2022/06/25 06:26:20;;;;;;;4.75;1.40;;;21.60;99.90;;;;;;7342524;19;107703;-88
2022/06/25 06:28:47;;;;;;;7.68;1.10;;;21.60;99.90;;;;;;7341496;19;108149;-89
2022/06/25 06:31:14;;;;;;;5.00;1.20;;;21.60;99.90;;;;;;7341892;19;108858;-88
2022/06/25 06:33:41;;;;;;;6.82;1.25;;;21.60;99.90;;;;;;7343641;19;108007;-88
2022/06/25 06:36:08;;;;;;;4.63;1.40;;;21.60;99.90;;;;;;7342894;19;109449;-88
2022/06/25 06:38:35;;;;;;;3.05;1.10;;;21.60;99.90;;;;;;7343902;19;108650;-89
2022/06/25 06:41:02;;;;;;;6.43;1.50;;;21.60;99.90;;;;;;7341798;19;107184;-89
2022/06/25 06:43:30;;;;;;;5.78;1.25;;;21.60;99.90;;;;;;7347027;19;110097;-90
2022/06/25 06:45:57;;;;;;;5.53;1.38;;;21.70;99.90;;;;;;7342267;19;109158;-88
2022/06/25 06:48:24;;;;;;;4.07;1.00;;;21.70;99.90;;;;;;7340583;19;108208;-89
2022/06/25 06:50:51;;;;;;;5.65;1.13;;;21.70;99.90;;;;;;7340770;19;108637;-88
2022/06/25 06:53:20;;;;;;;5.15;1.17;;;21.70;99.90;;;;;;7343254;19;108048;-89
2022/06/25 06:55:47;;;;;;;3.83;1.00;;;21.80;99.90;;;;;;7340848;19;110276;-89
2022/06/25 06:58:15;;;;;;;5.07;1.10;;;21.80;99.90;;;;;;7340263;19;108979;-89
2022/06/25 07:00:42;;;;;;;3.42;0.98;;;21.90;99.90;;;;;;7338757;19;111400;-88
2022/06/25 07:03:09;;;;;;;4.40;0.95;;;21.90;99.90;;;;;;7340541;19;108007;-89
2022/06/25 07:05:37;;;;;;;4.65;1.20;;;22.00;99.90;;;;;;7347465;19;108925;-88
2022/06/25 07:08:04;;;;;;;4.28;1.40;;;22.00;99.90;;;;;;7340360;19;108739;-89
2022/06/25 07:10:31;;;;;;;4.13;1.02;;;22.10;99.90;;;;;;7340511;19;108476;-88
2022/06/25 07:12:58;;;;;;;7.20;1.10;;;22.20;99.90;;;;;;7342526;19;107899;-88
2022/06/25 07:15:25;;;;;;;2.67;0.98;;;22.30;99.90;;;;;;7342633;19;107924;-88
2022/06/25 07:17:58;;;;;;;2.92;1.15;;;22.30;99.90;;;;;;7340438;19;109030;-90
2022/06/25 07:20:25;;;;;;;4.20;0.82;;;22.30;99.90;;;;;;7342593;19;110444;-90
2022/06/25 07:22:52;;;;;;;3.03;1.10;;;22.30;99.90;;;;;;7340721;19;108221;-90
2022/06/25 07:25:19;;;;;;;4.30;0.90;;;22.30;99.90;;;;;;7341176;19;108438;-89
2022/06/25 07:27:48;;;;;;;5.43;1.10;;;22.40;99.90;;;;;;7347985;19;107325;-89
2022/06/25 07:30:16;;;;;;;2.63;1.00;;;22.40;99.90;;;;;;7343520;19;109150;-89
2022/06/25 07:32:43;;;;;;;5.25;0.98;;;22.40;99.90;;;;;;7341179;19;108017;-90
2022/06/25 07:35:10;;;;;;;4.25;1.10;;;22.40;99.90;;;;;;7343706;19;111907;-90
2022/06/25 07:37:37;;;;;;;2.10;0.88;;;22.40;99.90;;;;;;7338982;19;108815;-89
2022/06/25 07:40:05;;;;;;;3.25;0.90;;;22.50;99.90;;;;;;7343252;19;107000;-90
2022/06/25 07:42:32;;;;;;;5.30;1.17;;;22.50;99.90;;;;;;7342600;19;108440;-88
2022/06/25 07:44:59;;;;;;;5.55;1.20;;;22.60;99.90;;;;;;7347102;19;110938;-88
2022/06/25 07:47:26;;;;;;;3.83;1.10;;;22.60;99.90;;;;;;7345064;19;111683;-87
2022/06/25 07:52:39;;;;;;;4.88;0.88;;;22.60;99.90;;;;;;7348152;19;110449;-88
2022/06/25 07:55:06;;;;;;;5.10;0.90;;;22.60;99.90;;;;;;7345951;19;107691;-88
2022/06/25 07:57:34;;;;;;;2.85;0.93;;;22.60;99.90;;;;;;7347031;19;109510;-86
2022/06/25 08:00:02;;;;;;;3.08;0.70;;;22.50;99.90;;;;;;7344268;19;107824;-88
2022/06/25 08:02:29;;;;;;;3.85;0.80;;;22.50;99.90;;;;;;7346509;19;107838;-88
2022/06/25 08:04:56;;;;;;;3.38;0.90;;;22.50;99.90;;;;;;7345878;19;108572;-88
2022/06/25 08:07:23;;;;;;;3.65;0.80;;;22.50;99.90;;;;;;7346266;19;109587;-88
2022/06/25 08:09:50;;;;;;;4.72;0.90;;;22.50;99.90;;;;;;7350049;19;108416;-87
2022/06/25 08:12:18;;;;;;;5.18;1.00;;;22.50;99.90;;;;;;7347262;19;107401;-88
2022/06/25 08:14:45;;;;;;;4.80;1.00;;;22.50;99.90;;;;;;7347587;19;108575;-87
2022/06/25 08:17:12;;;;;;;3.72;1.02;;;22.60;99.90;;;;;;7347788;19;109049;-88
2022/06/25 08:19:39;;;;;;;4.15;1.08;;;22.60;99.90;;;;;;7347004;19;111046;-88
2022/06/25 08:22:06;;;;;;;5.55;0.82;;;22.60;99.90;;;;;;7346747;19;107236;-87
2022/06/25 08:24:33;;;;;;;4.38;1.10;;;22.70;99.90;;;;;;7344935;19;108979;-87
2022/06/25 08:27:00;;;;;;;2.75;0.82;;;22.80;99.90;;;;;;7345618;19;110466;-87
2022/06/25 08:29:27;;;;;;;4.80;0.80;;;22.90;99.90;;;;;;7346021;19;108861;-88
2022/06/25 08:31:54;;;;;;;3.78;0.80;;;23.00;99.90;;;;;;7350973;19;108869;-88
2022/06/25 08:34:22;;;;;;;3.20;0.70;;;23.00;99.90;;;;;;7347773;19;111295;-87
2022/06/25 08:36:49;;;;;;;3.95;0.80;;;23.10;99.90;;;;;;7346928;19;112145;-88
2022/06/25 08:39:16;;;;;;;2.75;0.60;;;23.20;99.90;;;;;;7346908;19;108167;-88
2022/06/25 08:41:43;;;;;;;1.55;0.50;;;23.40;99.90;;;;;;7343722;19;111691;-88
2022/06/25 08:44:11;;;;;;;2.10;0.82;;;23.50;99.90;;;;;;7344528;19;108853;-88
2022/06/25 08:46:38;;;;;;;1.73;0.65;;;23.50;99.90;;;;;;7346392;19;108294;-88
2022/06/25 08:49:05;;;;;;;3.33;0.70;;;23.60;99.90;;;;;;7342853;19;111626;-89
2022/06/25 08:51:33;;;;;;;3.78;0.90;;;23.60;99.90;;;;;;7346619;19;109229;-89
2022/06/25 08:54:02;;;;;;;2.10;0.60;;;23.60;99.90;;;;;;7350097;19;107998;-88
2022/06/25 08:56:35;;;;;;;3.40;0.70;;;23.70;99.90;;;;;;7345835;19;109445;-89
2022/06/25 08:59:03;;;;;;;3.92;0.80;;;23.70;99.90;;;;;;7346865;19;107777;-88
2022/06/25 09:01:30;;;;;;;4.97;0.70;;;23.70;99.90;;;;;;7345215;19;107903;-88
2022/06/25 09:03:58;;;;;;;1.80;0.60;;;23.70;99.90;;;;;;7345191;19;111902;-87
2022/06/25 09:06:25;;;;;;;4.57;0.70;;;23.70;99.90;;;;;;7342673;19;107855;-89
2022/06/25 09:09:12;;;;;;;1.80;0.52;;;23.80;99.90;;;;;;7343769;19;108283;-88
2022/06/25 09:12:08;;;;;;;3.45;0.70;;;24.00;99.90;;;;;;7346442;19;111619;-88
2022/06/25 09:14:37;;;;;;;4.93;0.77;;;24.30;99.90;;;;;;7344338;19;108014;-88
2022/06/25 09:17:08;;;;;;;4.80;0.50;;;24.30;99.90;;;;;;7347333;19;108659;-88
2022/06/25 09:19:40;;;;;;;5.18;0.70;;;24.30;99.90;;;;;;7343308;19;107527;-89
2022/06/25 09:22:13;;;;;;;4.10;0.70;;;24.30;99.90;;;;;;7345658;19;108485;-88
2022/06/25 09:24:44;;;;;;;3.17;0.80;;;24.30;99.90;;;;;;7344047;19;109383;-87
2022/06/25 09:27:12;;;;;;;3.90;0.80;;;24.40;99.90;;;;;;7344604;19;107972;-89
2022/06/25 09:29:42;;;;;;;2.40;0.68;;;24.40;99.90;;;;;;7345732;19;111074;-87
2022/06/25 09:32:11;;;;;;;3.53;0.70;;;24.50;99.90;;;;;;7345201;19;107886;-88
2022/06/25 09:34:38;;;;;;;1.05;0.40;;;24.70;99.90;;;;;;7345506;19;107663;-90
2022/06/25 09:37:25;;;;;;;1.33;0.50;;;24.80;99.90;;;;;;7346016;19;108000;-89
2022/06/25 09:39:55;;;;;;;2.22;0.50;;;25.00;99.90;;;;;;7352268;19;111643;-89
2022/06/25 09:42:31;;;;;;;3.65;0.60;;;25.20;99.90;;;;;;7346862;19;108140;-90
2022/06/25 09:45:11;;;;;;;2.17;0.63;;;25.30;99.90;;;;;;7344351;19;111639;-89
2022/06/25 09:47:44;;;;;;;2.33;0.73;;;25.30;99.90;;;;;;7345240;19;108425;-90
2022/06/25 09:50:13;;;;;;;2.55;0.60;;;25.40;99.90;;;;;;7345516;19;108240;-91
2022/06/25 09:52:59;;;;;;;2.95;0.60;;;25.40;99.90;;;;;;7344696;19;109018;-91
2022/06/25 09:55:37;;;;;;;2.33;0.57;;;25.60;99.90;;;;;;7341295;19;107491;-87
2022/06/25 09:58:05;;;;;;;1.77;0.80;;;25.60;99.90;;;;;;7342755;19;108614;-88
2022/06/25 10:00:33;;;;;;;2.80;0.60;;;25.70;99.90;;;;;;7344260;19;108934;-89
2022/06/25 10:03:01;;;;;;;4.72;0.60;;;25.80;99.90;;;;;;7348066;19;107283;-87
2022/06/25 10:05:38;;;;;;;2.42;0.70;;;25.90;99.90;;;;;;7339571;19;109632;-88
2022/06/25 10:08:10;;;;;;;3.05;0.65;;;25.90;99.90;;;;;;7342246;19;108331;-89
2022/06/25 10:10:40;;;;;;;2.15;0.60;;;25.80;99.90;;;;;;7344417;19;108316;-88
2022/06/25 10:13:08;;;;;;;2.70;0.47;;;25.90;99.90;;;;;;7342946;19;109090;-88
2022/06/25 10:15:38;;;;;;;1.05;0.50;;;25.90;99.90;;;;;;7344468;19;107773;-88
2022/06/25 10:18:09;;;;;;;2.70;0.75;;;25.90;99.80;;;;;;7342990;19;109482;-90
2022/06/25 10:20:39;;;;;;;1.90;0.60;;;26.00;99.60;;;;;;7342255;19;108926;-90
2022/06/25 10:23:08;;;;;;;1.13;0.50;;;25.90;99.60;;;;;;7350273;19;108904;-88
2022/06/25 10:25:36;;;;;;;2.17;0.52;;;25.90;99.80;;;;;;7342063;19;109403;-87
2022/06/25 10:28:06;;;;;;;2.95;0.50;;;25.90;99.70;;;;;;7343254;19;107659;-90
2022/06/25 10:30:46;;;;;;;2.83;0.50;;;25.90;99.50;;;;;;7344381;19;107461;-88
2022/06/25 10:33:22;;;;;;;2.75;0.55;;;26.10;99.50;;;;;;7343666;19;109240;-91
2022/06/25 10:35:51;;;;;;;1.88;0.45;;;26.10;99.10;;;;;;7345685;19;108070;-89
2022/06/25 10:38:23;;;;;;;2.45;0.50;;;26.10;99.00;;;;;;7342649;19;107503;-88
2022/06/25 10:40:57;;;;;;;1.80;0.40;;;26.10;99.30;;;;;;7343232;19;108975;-86
2022/06/25 10:43:48;;;;;;;0.38;0.30;;;26.20;99.00;;;;;;7343827;19;109172;-88
2022/06/25 10:46:34;;;;;;;2.20;0.40;;;26.30;98.60;;;;;;7349488;19;108099;-88
2022/06/25 10:49:04;;;;;;;1.10;0.50;;;26.30;98.20;;;;;;7341519;19;108333;-87
2022/06/25 10:51:42;;;;;;;1.35;0.50;;;26.30;98.40;;;;;;7342356;19;108131;-88
2022/06/25 10:54:33;;;;;;;1.88;0.43;;;26.30;98.60;;;;;;7341620;19;110360;-89
2022/06/25 10:57:02;;;;;;;1.30;0.40;;;26.30;98.30;;;;;;7341479;19;110990;-87
2022/06/25 10:59:35;;;;;;;1.05;0.50;;;26.30;98.70;;;;;;7340565;19;108496;-86
2022/06/25 11:02:05;;;;;;;2.67;0.52;;;26.40;98.70;;;;;;7340060;19;108601;-87
2022/06/25 11:04:33;;;;;;;1.73;0.73;;;26.40;98.30;;;;;;7341507;19;108028;-88
2022/06/25 11:07:15;;;;;;;2.25;0.60;;;26.30;98.10;;;;;;7341291;19;108173;-87
2022/06/25 11:09:53;;;;;;;2.60;0.60;;;26.20;98.00;;;;;;7345762;19;108915;-87
2022/06/25 11:12:21;;;;;;;4.10;0.70;;;26.20;98.20;;;;;;7339096;19;111553;-86
2022/06/25 11:15:03;;;;;;;2.85;0.80;;;26.10;98.10;;;;;;7343638;19;109008;-86
2022/06/25 11:17:30;;;;;;;1.40;0.60;;;25.90;98.40;;;;;;7343251;19;108215;-86
2022/06/25 11:20:05;;;;;;;2.15;0.75;;;25.90;98.70;;;;;;7349329;19;108300;-85
2022/06/25 11:22:33;;;;;;;1.65;0.80;;;26.10;98.60;;;;;;7348011;19;108145;-87
2022/06/25 11:30:34;;;;;;;2.42;0.65;;;26.20;99.40;;;;;;7348028;19;109257;-86
2022/06/25 11:33:03;;;;;;;2.40;0.70;;;26.40;99.30;;;;;;7353165;19;110431;-85
2022/06/25 11:35:40;;;;;;;2.03;0.65;;;26.40;98.90;;;;;;7346654;19;109089;-86
2022/06/25 11:38:15;;;;;;;0.98;0.65;;;26.50;98.60;;;;;;7347039;19;107994;-87
2022/06/25 11:40:42;;;;;;;3.90;0.80;;;26.40;98.60;;;;;;7346093;19;109952;-86
2022/06/25 11:43:09;;;;;;;2.03;0.80;;;26.30;98.80;;;;;;7346534;19;111506;-86
2022/06/25 11:45:52;;;;;;;1.60;0.80;;;26.20;98.50;;;;;;7345240;19;108503;-86
2022/06/25 11:48:19;;;;;;;3.38;0.70;;;26.20;98.90;;;;;;7346193;19;107863;-87
2022/06/25 11:50:47;;;;;;;2.50;0.70;;;26.20;98.80;;;;;;7347043;19;108906;-86
2022/06/25 11:53:15;;;;;;;1.15;0.50;;;26.20;99.10;;;;;;7348315;19;107849;-86
2022/06/25 11:56:02;;;;;;;3.13;0.60;;;26.20;98.80;;;;;;7352258;19;107595;-85
2022/06/25 11:58:31;;;;;;;1.77;0.60;;;26.20;98.80;;;;;;7345890;19;111384;-86
2022/06/25 12:01:04;;;;;;;1.65;0.68;;;26.20;99.20;;;;;;7345348;19;108629;-87
2022/06/25 12:03:32;;;;;;;1.75;0.70;;;26.20;99.20;;;;;;7346134;19;112496;-85
2022/06/25 12:06:01;;;;;;;2.17;0.77;;;26.20;98.90;;;;;;7345839;19;107492;-87
2022/06/25 12:08:29;;;;;;;2.10;0.70;;;26.00;98.50;;;;;;7344670;19;108257;-86
2022/06/25 12:10:59;;;;;;;1.90;0.70;;;25.90;98.80;;;;;;7346591;19;108287;-86
2022/06/25 12:13:28;;;;;;;2.17;0.70;;;26.00;99.40;;;;;;7347299;19;108025;-86
2022/06/25 12:15:59;;;;;;;2.15;0.70;;;26.00;99.00;;;;;;7352766;19;107735;-86
2022/06/25 12:18:41;;;;;;;1.98;0.70;;;26.00;98.70;;;;;;7347430;19;108081;-86
2022/06/25 12:21:09;;;;;;;1.38;0.65;;;26.10;97.80;;;;;;7346470;19;108650;-86
2022/06/25 12:23:52;;;;;;;3.03;0.73;;;26.00;98.50;;;;;;7345571;19;109203;-85
2022/06/25 12:26:28;;;;;;;3.20;0.90;;;26.10;98.20;;;;;;7345930;19;108236;-86
2022/06/25 12:29:25;;;;;;;2.08;1.08;;;26.10;98.50;;;;;;7342927;19;108156;-85
2022/06/25 12:31:55;;;;;;;3.83;0.95;;;26.20;98.70;;;;;;7346008;19;109280;-86
2022/06/25 12:34:24;;;;;;;1.80;1.00;;;26.30;99.00;;;;;;7344608;19;107316;-85
2022/06/25 12:36:52;;;;;;;1.48;0.80;;;26.50;99.20;;;;;;7346908;19;108358;-86
2022/06/25 12:39:33;;;;;;;3.75;0.80;;;26.80;99.10;;;;;;7347636;19;111627;-85
2022/06/25 12:42:13;;;;;;;3.33;0.82;;;26.90;98.50;;;;;;7344055;19;107781;-86
2022/06/25 12:44:42;;;;;;;1.52;0.80;;;27.00;98.50;;;;;;7343898;19;109099;-86
2022/06/25 12:47:14;;;;;;;1.88;0.80;;;27.00;98.60;;;;;;7346203;19;107155;-85
2022/06/25 12:49:51;;;;;;;5.78;0.80;;;27.00;98.20;;;;;;7345090;19;108549;-85
2022/06/25 12:52:24;;;;;;;2.65;0.70;;;26.90;98.20;;;;;;7344348;19;108964;-86
2022/06/25 12:54:53;;;;;;;4.18;0.80;;;26.80;98.20;;;;;;7345999;19;108471;-85
2022/06/25 12:57:36;;;;;;;2.80;0.63;;;26.60;98.20;;;;;;7344584;19;108021;-85
2022/06/25 13:00:16;;;;;;;3.15;1.10;;;26.40;98.30;;;;;;7344195;19;109977;-85
2022/06/25 13:02:43;;;;;;;6.03;0.88;;;26.20;99.20;;;;;;7349485;19;107982;-84
2022/06/25 13:05:15;;;;;;;5.68;0.90;;;26.10;99.70;;;;;;7342445;19;112741;-85
2022/06/25 13:07:42;;;;;;;2.00;0.55;;;26.10;99.80;;;;;;7344007;19;108006;-85
2022/06/25 13:10:10;;;;;;;3.15;0.75;;;26.30;99.80;;;;;;7343070;19;108128;-86